Time,TemperatureF,DewpointF,PressureIn,WindDirection,WindDirectionDegrees,WindSpeedMPH,WindSpeedGustMPH,Humidity,HourlyPrecipIn,Conditions,Clouds,dailyrainin,SoftwareType,DateUTC
2013-05-04 00:00:00,48.7,46.2,30.39,SW,225,3.8,6.0,88,0.00,,,0.00,fowsr,2013-05-04 04:00:00,
2013-05-04 00:05:00,48.7,46.4,30.39,NW,315,3.8,5.4,89,0.00,,,0.00,fowsr,2013-05-04 04:05:00,
2013-05-04 00:10:00,48.6,46.3,30.39,West,270,3.1,4.5,89,0.00,,,0.00,fowsr,2013-05-04 04:10:00,
2013-05-04 00:15:00,48.6,46.3,30.38,NW,315,3.1,3.8,89,0.00,,,0.00,fowsr,2013-05-04 04:15:00,
2013-05-04 00:20:00,48.6,46.3,30.38,West,270,2.2,6.0,89,0.00,,,0.00,fowsr,2013-05-04 04:20:00,
2013-05-04 00:25:00,48.6,46.0,30.38,West,270,2.2,3.8,88,0.00,,,0.00,fowsr,2013-05-04 04:25:00,
2013-05-04 00:30:00,48.6,46.0,30.38,South,180,3.8,6.0,88,0.00,,,0.00,fowsr,2013-05-04 04:30:00,
2013-05-04 00:35:00,48.6,46.0,30.38,SW,225,4.5,6.0,88,0.00,,,0.00,fowsr,2013-05-04 04:35:00,
2013-05-04 00:40:00,48.6,46.0,30.38,South,180,6.0,8.3,88,0.00,,,0.00,fowsr,2013-05-04 04:40:00,
2013-05-04 00:45:00,48.6,46.0,30.38,SW,225,6.0,7.6,88,0.00,,,0.00,fowsr,2013-05-04 04:45:00,
2013-05-04 00:50:00,48.6,46.0,30.37,NW,315,5.4,8.3,88,0.00,,,0.00,fowsr,2013-05-04 04:50:00,
2013-05-04 00:55:00,48.6,46.0,30.37,WSW,247,3.8,5.4,88,0.00,,,0.00,fowsr,2013-05-04 04:55:00,
2013-05-04 01:00:00,48.7,46.2,30.37,NW,315,3.1,5.4,88,0.00,,,0.00,fowsr,2013-05-04 05:00:00,
2013-05-04 01:05:00,48.7,46.0,30.36,West,270,3.1,5.4,87,0.00,,,0.00,fowsr,2013-05-04 05:05:00,
2013-05-04 01:10:00,48.9,46.2,30.36,South,180,4.5,6.0,87,0.00,,,0.00,fowsr,2013-05-04 05:10:00,
2013-05-04 01:15:00,48.7,46.0,30.36,South,180,6.0,9.2,87,0.00,,,0.00,fowsr,2013-05-04 05:15:00,
2013-05-04 01:20:00,48.7,45.8,30.35,North,0,4.5,6.0,86,0.00,,,0.00,fowsr,2013-05-04 05:20:00,
2013-05-04 01:25:00,48.6,45.6,30.35,SE,135,3.8,9.8,86,0.00,,,0.00,fowsr,2013-05-04 05:25:00,
2013-05-04 01:30:00,48.6,45.4,30.35,SW,225,3.8,6.0,85,0.00,,,0.00,fowsr,2013-05-04 05:30:00,
2013-05-04 01:35:00,48.4,45.2,30.35,South,180,5.4,9.2,85,0.00,,,0.00,fowsr,2013-05-04 05:35:00,
2013-05-04 01:40:00,48.2,45.0,30.34,West,270,4.5,8.3,85,0.00,,,0.00,fowsr,2013-05-04 05:40:00,
2013-05-04 01:45:00,48.0,45.1,30.34,South,180,3.1,6.0,86,0.00,,,0.00,fowsr,2013-05-04 05:45:00,
2013-05-04 01:50:00,48.0,45.1,30.34,NW,315,3.1,4.5,86,0.00,,,0.00,fowsr,2013-05-04 05:50:00,
2013-05-04 01:55:00,48.0,45.1,30.34,North,0,2.2,3.8,86,0.00,,,0.00,fowsr,2013-05-04 05:55:00,
2013-05-04 02:00:00,47.8,44.9,30.34,SW,225,1.6,3.1,86,0.00,,,0.00,fowsr,2013-05-04 06:00:00,
2013-05-04 02:05:00,47.7,44.7,30.33,NW,315,2.2,3.1,86,0.00,,,0.00,fowsr,2013-05-04 06:05:00,
2013-05-04 02:10:00,47.5,44.5,30.33,North,0,1.6,2.2,86,0.00,,,0.00,fowsr,2013-05-04 06:10:00,
2013-05-04 02:15:00,47.3,44.6,30.33,SW,225,0.7,3.1,87,0.00,,,0.00,fowsr,2013-05-04 06:15:00,
2013-05-04 02:20:00,47.3,44.6,30.33,West,270,2.2,3.8,87,0.00,,,0.00,fowsr,2013-05-04 06:20:00,
2013-05-04 02:25:00,47.1,44.4,30.33,NW,315,2.2,4.5,87,0.00,,,0.00,fowsr,2013-05-04 06:25:00,
2013-05-04 02:30:00,46.9,44.2,30.32,SW,225,0.0,0.7,87,0.00,,,0.00,fowsr,2013-05-04 06:30:00,
2013-05-04 02:35:00,46.8,44.0,30.32,SW,225,2.2,3.8,87,0.00,,,0.00,fowsr,2013-05-04 06:35:00,
2013-05-04 02:40:00,46.8,44.3,30.32,SW,225,0.7,1.6,88,0.00,,,0.00,fowsr,2013-05-04 06:40:00,
2013-05-04 02:45:00,46.8,44.3,30.32,NW,315,2.2,3.8,88,0.00,,,0.00,fowsr,2013-05-04 06:45:00,
2013-05-04 02:50:00,46.8,44.3,30.32,West,270,2.2,3.8,88,0.00,,,0.00,fowsr,2013-05-04 06:50:00,
2013-05-04 02:55:00,46.8,44.3,30.32,West,270,1.6,2.2,88,0.00,,,0.00,fowsr,2013-05-04 06:55:00,
2013-05-04 03:00:00,46.9,44.7,30.32,South,180,3.8,6.0,89,0.00,,,0.00,fowsr,2013-05-04 07:00:00,
2013-05-04 03:05:00,46.9,44.7,30.32,NW,315,1.6,3.8,89,0.00,,,0.00,fowsr,2013-05-04 07:05:00,
2013-05-04 03:10:00,46.9,44.7,30.32,NW,315,1.6,2.2,89,0.00,,,0.00,fowsr,2013-05-04 07:10:00,
2013-05-04 03:15:00,46.9,44.7,30.32,WSW,247,0.7,2.2,89,0.00,,,0.00,fowsr,2013-05-04 07:15:00,
2013-05-04 03:20:00,46.8,44.3,30.32,West,270,2.2,4.5,88,0.00,,,0.00,fowsr,2013-05-04 07:20:00,
2013-05-04 03:25:00,46.8,44.3,30.32,SW,225,0.7,1.6,88,0.00,,,0.00,fowsr,2013-05-04 07:25:00,
2013-05-04 03:30:00,46.4,43.9,30.32,SW,225,1.6,3.1,88,0.00,,,0.00,fowsr,2013-05-04 07:30:00,
2013-05-04 03:35:00,46.2,43.7,30.31,SW,225,0.0,0.7,88,0.00,,,0.00,fowsr,2013-05-04 07:35:00,
2013-05-04 03:40:00,46.0,43.6,30.32,East,90,0.0,0.0,88,0.00,,,0.00,fowsr,2013-05-04 07:40:00,
2013-05-04 03:45:00,45.9,43.4,30.32,South,180,0.0,0.0,88,0.00,,,0.00,fowsr,2013-05-04 07:45:00,
2013-05-04 03:50:00,45.5,43.0,30.31,SE,135,0.0,0.7,88,0.00,,,0.00,fowsr,2013-05-04 07:50:00,
2013-05-04 03:55:00,45.1,42.7,30.32,ESE,112,0.7,2.2,88,0.00,,,0.00,fowsr,2013-05-04 07:55:00,
2013-05-04 04:00:00,45.1,42.7,30.31,SW,225,0.7,1.6,88,0.00,,,0.00,fowsr,2013-05-04 08:00:00,
2013-05-04 04:05:00,45.0,42.7,30.31,West,270,1.6,2.2,89,0.00,,,0.00,fowsr,2013-05-04 08:05:00,
2013-05-04 04:15:00,44.8,42.5,30.31,SW,225,1.6,3.1,89,0.00,,,0.00,fowsr,2013-05-04 08:15:00,
2013-05-04 04:20:00,44.8,42.7,30.32,SW,225,1.6,2.2,90,0.00,,,0.00,fowsr,2013-05-04 08:20:00,
2013-05-04 04:25:00,44.8,42.7,30.31,South,180,0.7,1.6,90,0.00,,,0.00,fowsr,2013-05-04 08:25:00,
2013-05-04 04:30:00,44.8,43.0,30.31,SW,225,0.0,1.6,91,0.00,,,0.00,fowsr,2013-05-04 08:30:00,
2013-05-04 04:35:00,44.6,42.8,30.31,South,180,0.7,2.2,91,0.00,,,0.00,fowsr,2013-05-04 08:35:00,
2013-05-04 04:40:00,44.8,43.0,30.31,South,180,1.6,2.2,91,0.00,,,0.00,fowsr,2013-05-04 08:40:00,
2013-05-04 04:45:00,44.8,43.0,30.32,South,180,1.6,3.1,91,0.00,,,0.00,fowsr,2013-05-04 08:45:00,
2013-05-04 04:50:00,44.8,43.2,30.31,South,180,3.1,4.5,92,0.00,,,0.00,fowsr,2013-05-04 08:50:00,
2013-05-04 04:55:00,45.0,43.3,30.31,SW,225,3.1,3.8,92,0.00,,,0.00,fowsr,2013-05-04 08:55:00,
2013-05-04 05:05:00,45.0,43.6,30.31,South,180,2.2,3.8,93,0.00,,,0.00,fowsr,2013-05-04 09:05:00,
2013-05-04 05:10:00,45.0,43.6,30.31,South,180,3.1,4.5,93,0.00,,,0.00,fowsr,2013-05-04 09:10:00,
2013-05-04 05:15:00,45.0,43.6,30.31,South,180,2.2,3.8,93,0.00,,,0.00,fowsr,2013-05-04 09:15:00,
2013-05-04 05:25:00,45.0,43.8,30.32,SW,225,0.7,1.6,94,0.00,,,0.00,fowsr,2013-05-04 09:25:00,
2013-05-04 05:30:00,45.0,43.8,30.32,West,270,0.7,1.6,94,0.00,,,0.00,fowsr,2013-05-04 09:30:00,
2013-05-04 05:35:00,45.0,43.8,30.32,South,180,0.7,1.6,94,0.00,,,0.00,fowsr,2013-05-04 09:35:00,
2013-05-04 05:40:00,44.8,43.6,30.32,South,180,1.6,3.1,94,0.00,,,0.00,fowsr,2013-05-04 09:40:00,
2013-05-04 05:45:00,44.8,43.6,30.32,SE,135,1.6,3.1,94,0.00,,,0.00,fowsr,2013-05-04 09:45:00,
2013-05-04 05:50:00,44.8,43.6,30.32,South,180,2.2,3.1,94,0.00,,,0.00,fowsr,2013-05-04 09:50:00,
2013-05-04 05:55:00,44.8,43.6,30.32,South,180,2.2,3.1,94,0.00,,,0.00,fowsr,2013-05-04 09:55:00,
2013-05-04 06:00:00,44.8,43.6,30.32,South,180,1.6,2.2,94,0.00,,,0.00,fowsr,2013-05-04 10:00:00,
2013-05-04 06:05:00,44.8,43.8,30.32,SW,225,1.6,3.1,95,0.00,,,0.00,fowsr,2013-05-04 10:05:00,
2013-05-04 06:10:00,44.8,43.8,30.32,South,180,0.7,2.2,95,0.00,,,0.00,fowsr,2013-05-04 10:10:00,
2013-05-04 06:15:00,44.8,43.8,30.33,South,180,1.6,3.1,95,0.00,,,0.00,fowsr,2013-05-04 10:15:00,
2013-05-04 06:20:00,44.8,43.8,30.32,South,180,2.2,3.1,95,0.00,,,0.00,fowsr,2013-05-04 10:20:00,
2013-05-04 06:25:00,44.8,43.8,30.33,SW,225,1.6,3.1,95,0.00,,,0.00,fowsr,2013-05-04 10:25:00,
2013-05-04 06:30:00,44.8,43.8,30.33,South,180,0.7,2.2,95,0.00,,,0.00,fowsr,2013-05-04 10:30:00,
2013-05-04 06:35:00,45.0,44.0,30.33,South,180,1.6,2.2,95,0.00,,,0.00,fowsr,2013-05-04 10:35:00,
2013-05-04 06:40:00,45.0,44.2,30.33,SW,225,2.2,5.4,96,0.00,,,0.00,fowsr,2013-05-04 10:40:00,
2013-05-04 06:45:00,45.1,44.3,30.33,SW,225,3.8,5.4,96,0.00,,,0.00,fowsr,2013-05-04 10:45:00,
2013-05-04 06:50:00,45.3,44.5,30.33,SW,225,3.1,4.5,96,0.00,,,0.00,fowsr,2013-05-04 10:50:00,
2013-05-04 06:55:00,45.5,44.7,30.33,West,270,2.2,3.1,96,0.00,,,0.00,fowsr,2013-05-04 10:55:00,
2013-05-04 07:00:00,45.7,44.9,30.33,SSW,202,3.8,5.4,96,0.00,,,0.00,fowsr,2013-05-04 11:00:00,
2013-05-04 07:05:00,45.9,45.1,30.33,SW,225,1.6,3.1,96,0.00,,,0.00,fowsr,2013-05-04 11:05:00,
2013-05-04 07:10:00,46.0,45.2,30.33,South,180,2.2,3.8,96,0.00,,,0.00,fowsr,2013-05-04 11:10:00,
2013-05-04 07:15:00,46.2,45.4,30.33,South,180,2.2,3.1,96,0.00,,,0.00,fowsr,2013-05-04 11:15:00,
2013-05-04 07:20:00,46.4,45.6,30.33,West,270,0.7,2.2,96,0.00,,,0.00,fowsr,2013-05-04 11:20:00,
2013-05-04 07:25:00,46.9,46.1,30.32,SW,225,1.6,3.1,96,0.00,,,0.00,fowsr,2013-05-04 11:25:00,
2013-05-04 07:30:00,47.8,47.0,30.33,SW,225,0.7,1.6,96,0.00,,,0.00,fowsr,2013-05-04 11:30:00,
2013-05-04 07:35:00,48.7,47.7,30.33,SE,135,2.2,3.8,95,0.00,,,0.00,fowsr,2013-05-04 11:35:00,
2013-05-04 07:40:00,49.3,48.3,30.33,South,180,3.1,4.5,95,0.00,,,0.00,fowsr,2013-05-04 11:40:00,
2013-05-04 07:45:00,49.8,48.6,30.33,SW,225,2.2,3.8,94,0.00,,,0.00,fowsr,2013-05-04 11:45:00,
2013-05-04 07:50:00,50.2,47.8,30.33,South,180,0.7,2.2,89,0.00,,,0.00,fowsr,2013-05-04 11:50:00,
2013-05-04 07:55:00,50.7,47.9,30.33,SW,225,3.1,4.5,87,0.00,,,0.00,fowsr,2013-05-04 11:55:00,
2013-05-04 08:00:00,51.3,48.2,30.33,NW,315,3.1,3.8,86,0.00,,,0.00,fowsr,2013-05-04 12:00:00,
2013-05-04 08:08:00,51.8,48.3,30.33,West,270,1.6,2.2,84,0.00,,,0.00,fowsr,2013-05-04 12:08:00,
2013-05-04 08:15:00,53.2,49.2,30.33,SSW,202,1.6,3.1,82,0.00,,,0.00,fowsr,2013-05-04 12:15:00,
2013-05-04 08:20:00,53.6,48.8,30.33,SW,225,3.8,6.9,79,0.00,,,0.00,fowsr,2013-05-04 12:20:00,
2013-05-04 08:25:00,53.6,47.8,30.33,South,180,5.4,7.6,75,0.00,,,0.00,fowsr,2013-05-04 12:25:00,
2013-05-04 08:30:00,53.8,47.9,30.33,WSW,247,6.0,10.7,75,0.00,,,0.00,fowsr,2013-05-04 12:30:00,
2013-05-04 08:35:00,53.8,47.9,30.33,West,270,3.1,5.4,75,0.00,,,0.00,fowsr,2013-05-04 12:35:00,
2013-05-04 08:40:00,54.3,48.5,30.33,West,270,4.5,9.2,75,0.00,,,0.00,fowsr,2013-05-04 12:40:00,
2013-05-04 08:45:00,54.9,48.7,30.33,South,180,3.8,6.0,74,0.00,,,0.00,fowsr,2013-05-04 12:45:00,
2013-05-04 08:50:00,55.0,48.9,30.33,West,270,2.2,3.8,74,0.00,,,0.00,fowsr,2013-05-04 12:50:00,
2013-05-04 08:55:00,55.2,48.8,30.34,West,270,2.2,3.8,73,0.00,,,0.00,fowsr,2013-05-04 12:55:00,
2013-05-04 09:00:00,55.8,49.6,30.33,SW,225,3.1,4.5,74,0.00,,,0.00,fowsr,2013-05-04 13:00:00,
2013-05-04 09:05:00,56.5,49.7,30.33,SW,225,6.0,8.3,72,0.00,,,0.00,fowsr,2013-05-04 13:05:00,
2013-05-04 09:10:00,56.8,49.2,30.33,South,180,4.5,7.6,69,0.00,,,0.00,fowsr,2013-05-04 13:10:00,
2013-05-04 09:15:00,57.0,48.8,30.33,East,90,4.5,8.3,67,0.00,,,0.00,fowsr,2013-05-04 13:15:00,
2013-05-04 09:20:00,57.0,48.8,30.33,South,180,7.6,13.0,67,0.00,,,0.00,fowsr,2013-05-04 13:20:00,
2013-05-04 09:25:00,56.8,48.3,30.32,West,270,6.0,11.4,66,0.00,,,0.00,fowsr,2013-05-04 13:25:00,
2013-05-04 09:30:00,57.0,48.2,30.32,NW,315,3.8,6.9,65,0.00,,,0.00,fowsr,2013-05-04 13:30:00,
2013-05-04 09:35:00,57.2,48.3,30.32,NW,315,5.4,7.6,65,0.00,,,0.00,fowsr,2013-05-04 13:35:00,
2013-05-04 09:40:00,57.6,48.7,30.32,South,180,5.4,9.8,65,0.00,,,0.00,fowsr,2013-05-04 13:40:00,
2013-05-04 09:45:00,57.7,48.5,30.33,West,270,7.6,12.1,64,0.00,,,0.00,fowsr,2013-05-04 13:45:00,
2013-05-04 09:50:00,57.6,47.4,30.32,SW,225,6.9,9.8,61,0.00,,,0.00,fowsr,2013-05-04 13:50:00,
2013-05-04 09:55:00,57.7,48.5,30.32,West,270,5.4,9.2,64,0.00,,,0.00,fowsr,2013-05-04 13:55:00,
2013-05-04 10:00:00,58.1,48.9,30.32,West,270,6.0,8.3,64,0.00,,,0.00,fowsr,2013-05-04 14:00:00,
2013-05-04 10:05:00,57.9,48.1,30.33,SW,225,3.8,5.4,62,0.00,,,0.00,fowsr,2013-05-04 14:05:00,
2013-05-04 10:10:00,58.3,48.1,30.32,WSW,247,3.8,8.3,61,0.00,,,0.00,fowsr,2013-05-04 14:10:00,
2013-05-04 10:15:00,58.5,48.3,30.33,NW,315,4.5,6.0,61,0.00,,,0.00,fowsr,2013-05-04 14:15:00,
2013-05-04 10:20:00,58.6,48.8,30.33,SW,225,6.9,10.7,62,0.00,,,0.00,fowsr,2013-05-04 14:20:00,
2013-05-04 10:25:00,58.5,48.3,30.32,North,0,5.4,8.3,61,0.00,,,0.00,fowsr,2013-05-04 14:25:00,
2013-05-04 10:30:00,59.0,48.4,30.32,SW,225,5.4,8.3,60,0.00,,,0.00,fowsr,2013-05-04 14:30:00,
2013-05-04 10:35:00,59.0,48.1,30.32,WSW,247,6.9,10.7,59,0.00,,,0.00,fowsr,2013-05-04 14:35:00,
2013-05-04 10:40:00,59.2,47.9,30.32,SW,225,6.9,13.0,58,0.00,,,0.00,fowsr,2013-05-04 14:40:00,
2013-05-04 10:45:00,59.4,48.4,30.33,SW,225,6.9,12.1,59,0.00,,,0.00,fowsr,2013-05-04 14:45:00,
2013-05-04 10:50:00,59.7,48.4,30.32,West,270,3.8,6.9,58,0.00,,,0.00,fowsr,2013-05-04 14:50:00,
2013-05-04 10:55:00,60.1,48.4,30.32,West,270,3.8,7.6,57,0.00,,,0.00,fowsr,2013-05-04 14:55:00,
2013-05-04 11:00:00,60.8,48.7,30.32,North,0,6.0,8.3,56,0.00,,,0.00,fowsr,2013-05-04 15:00:00,
2013-05-04 11:05:00,60.3,48.2,30.32,NW,315,6.9,10.7,56,0.00,,,0.00,fowsr,2013-05-04 15:05:00,
2013-05-04 11:10:00,60.3,48.2,30.32,South,180,4.5,7.6,56,0.00,,,0.00,fowsr,2013-05-04 15:10:00,
2013-05-04 11:15:00,60.4,48.4,30.32,West,270,6.9,9.8,56,0.00,,,0.00,fowsr,2013-05-04 15:15:00,
2013-05-04 11:20:00,60.3,47.9,30.32,West,270,2.2,5.4,55,0.00,,,0.00,fowsr,2013-05-04 15:20:00,
2013-05-04 11:25:00,60.8,48.4,30.32,SW,225,4.5,7.6,55,0.00,,,0.00,fowsr,2013-05-04 15:25:00,
2013-05-04 11:35:00,60.6,48.6,30.32,NW,315,3.8,4.5,56,0.00,,,0.00,fowsr,2013-05-04 15:35:00,
2013-05-04 11:40:00,61.0,47.8,30.32,West,270,6.9,10.7,53,0.00,,,0.00,fowsr,2013-05-04 15:40:00,
2013-05-04 11:45:00,60.4,47.7,30.32,West,270,3.1,6.0,54,0.00,,,0.00,fowsr,2013-05-04 15:45:00,
2013-05-04 11:50:00,61.2,48.0,30.32,SW,225,8.3,15.2,53,0.00,,,0.00,fowsr,2013-05-04 15:50:00,
2013-05-04 11:55:00,61.5,48.3,30.32,East,90,4.5,6.9,53,0.00,,,0.00,fowsr,2013-05-04 15:55:00,
2013-05-04 12:00:00,61.7,48.8,30.32,SE,135,3.1,5.4,54,0.00,,,0.00,fowsr,2013-05-04 16:00:00,
2013-05-04 12:05:00,61.7,48.5,30.32,West,270,2.2,6.0,53,0.00,,,0.00,fowsr,2013-05-04 16:05:00,
2013-05-04 12:10:00,61.3,48.1,30.31,West,270,5.4,11.4,53,0.00,,,0.00,fowsr,2013-05-04 16:10:00,
2013-05-04 12:15:00,61.7,48.5,30.31,West,270,4.5,5.4,53,0.00,,,0.00,fowsr,2013-05-04 16:15:00,
2013-05-04 12:20:00,61.2,48.0,30.31,NW,315,3.1,6.0,53,0.00,,,0.00,fowsr,2013-05-04 16:20:00,
2013-05-04 12:25:00,61.0,47.8,30.31,SW,225,3.8,7.6,53,0.00,,,0.00,fowsr,2013-05-04 16:25:00,
2013-05-04 12:30:00,61.3,47.7,30.31,SW,225,6.9,9.8,52,0.00,,,0.00,fowsr,2013-05-04 16:30:00,
2013-05-04 12:35:00,61.3,47.7,30.31,South,180,7.6,11.4,52,0.00,,,0.00,fowsr,2013-05-04 16:35:00,
2013-05-04 12:40:00,61.3,47.7,30.31,SW,225,8.3,14.5,52,0.00,,,0.00,fowsr,2013-05-04 16:40:00,
2013-05-04 12:50:00,61.0,48.5,30.31,SW,225,4.5,6.0,55,0.00,,,0.00,fowsr,2013-05-04 16:50:00,
2013-05-04 12:55:00,61.5,49.7,30.31,NW,315,3.1,5.4,57,0.00,,,0.00,fowsr,2013-05-04 16:55:00,
2013-05-04 13:00:00,61.9,49.7,30.31,South,180,6.9,14.5,56,0.00,,,0.00,fowsr,2013-05-04 17:00:00,
2013-05-04 13:05:00,61.5,49.0,30.31,West,270,3.1,3.8,55,0.00,,,0.00,fowsr,2013-05-04 17:05:00,
2013-05-04 13:10:00,61.3,49.2,30.31,SW,225,9.8,13.0,56,0.00,,,0.00,fowsr,2013-05-04 17:10:00,
2013-05-04 13:15:00,61.2,49.1,30.31,SW,225,6.9,9.8,56,0.00,,,0.00,fowsr,2013-05-04 17:15:00,
2013-05-04 13:20:00,61.0,48.9,30.31,NW,315,6.0,10.7,56,0.00,,,0.00,fowsr,2013-05-04 17:20:00,
2013-05-04 13:25:00,61.0,48.5,30.31,West,270,8.3,12.1,55,0.00,,,0.00,fowsr,2013-05-04 17:25:00,
2013-05-04 13:30:00,60.6,48.6,30.31,NE,45,4.5,9.8,56,0.00,,,0.00,fowsr,2013-05-04 17:30:00,
2013-05-04 13:35:00,60.8,48.4,30.31,NW,315,4.5,7.6,55,0.00,,,0.00,fowsr,2013-05-04 17:35:00,
2013-05-04 13:40:00,60.8,48.7,30.31,NW,315,7.6,10.7,56,0.00,,,0.00,fowsr,2013-05-04 17:40:00,
2013-05-04 13:45:00,61.0,48.5,30.31,SW,225,6.9,9.2,55,0.00,,,0.00,fowsr,2013-05-04 17:45:00,
2013-05-04 13:50:00,60.8,48.4,30.31,South,180,3.1,5.4,55,0.00,,,0.00,fowsr,2013-05-04 17:50:00,
2013-05-04 13:55:00,61.2,48.7,30.31,South,180,6.9,13.0,55,0.00,,,0.00,fowsr,2013-05-04 17:55:00,
2013-05-04 14:00:00,60.8,48.7,30.31,SW,225,6.0,11.4,56,0.00,,,0.00,fowsr,2013-05-04 18:00:00,
2013-05-04 14:05:00,61.2,49.4,30.31,NW,315,4.5,8.3,57,0.00,,,0.00,fowsr,2013-05-04 18:05:00,
2013-05-04 14:10:00,61.2,49.4,30.31,North,0,5.4,9.8,57,0.00,,,0.00,fowsr,2013-05-04 18:10:00,
2013-05-04 14:15:00,61.0,48.9,30.31,North,0,4.5,10.7,56,0.00,,,0.00,fowsr,2013-05-04 18:15:00,
2013-05-04 14:20:00,60.8,49.1,30.30,East,90,8.3,15.9,57,0.00,,,0.00,fowsr,2013-05-04 18:20:00,
2013-05-04 14:25:00,60.4,48.7,30.31,NW,315,4.5,9.8,57,0.00,,,0.00,fowsr,2013-05-04 18:25:00,
2013-05-04 14:30:00,60.3,48.6,30.30,NW,315,6.9,15.9,57,0.00,,,0.00,fowsr,2013-05-04 18:30:00,
2013-05-04 14:35:00,60.4,48.7,30.30,NW,315,8.3,11.4,57,0.00,,,0.00,fowsr,2013-05-04 18:35:00,
2013-05-04 14:40:00,60.3,48.2,30.30,NW,315,6.9,13.6,56,0.00,,,0.00,fowsr,2013-05-04 18:40:00,
2013-05-04 14:45:00,59.9,47.2,30.30,South,180,6.0,12.1,54,0.00,,,0.00,fowsr,2013-05-04 18:45:00,
2013-05-04 14:50:00,59.9,47.2,30.30,SW,225,3.8,6.0,54,0.00,,,0.00,fowsr,2013-05-04 18:50:00,
2013-05-04 14:55:00,60.4,48.0,30.30,SW,225,6.0,9.2,55,0.00,,,0.00,fowsr,2013-05-04 18:55:00,
2013-05-04 15:00:00,60.3,47.1,30.30,SW,225,6.0,7.6,53,0.00,,,0.00,fowsr,2013-05-04 19:00:00,
2013-05-04 15:05:00,59.9,46.4,30.30,West,270,11.4,15.9,52,0.00,,,0.00,fowsr,2013-05-04 19:05:00,
2013-05-04 15:10:00,59.7,45.9,30.30,SSW,202,5.4,8.3,51,0.00,,,0.00,fowsr,2013-05-04 19:10:00,
2013-05-04 15:15:00,60.1,46.6,30.30,SW,225,3.8,6.0,52,0.00,,,0.00,fowsr,2013-05-04 19:15:00,
2013-05-04 15:20:00,60.1,47.0,30.30,South,180,5.4,7.6,53,0.00,,,0.00,fowsr,2013-05-04 19:20:00,
2013-05-04 15:25:00,59.4,46.3,30.30,North,0,6.9,10.7,53,0.00,,,0.00,fowsr,2013-05-04 19:25:00,
2013-05-04 15:30:00,59.4,47.0,30.30,West,270,6.0,9.8,55,0.00,,,0.00,fowsr,2013-05-04 19:30:00,
2013-05-04 15:35:00,59.5,46.5,30.30,SW,225,6.9,9.2,53,0.00,,,0.00,fowsr,2013-05-04 19:35:00,
2013-05-04 15:40:00,59.7,46.6,30.30,SW,225,3.8,6.9,53,0.00,,,0.00,fowsr,2013-05-04 19:40:00,
2013-05-04 15:45:00,59.5,46.8,30.30,SW,225,7.6,9.8,54,0.00,,,0.00,fowsr,2013-05-04 19:45:00,
2013-05-04 15:50:00,59.7,47.4,30.30,North,0,6.0,11.4,55,0.00,,,0.00,fowsr,2013-05-04 19:50:00,
2013-05-04 15:55:00,59.7,47.0,30.29,SW,225,5.4,9.8,54,0.00,,,0.00,fowsr,2013-05-04 19:55:00,
2013-05-04 16:00:00,59.4,46.7,30.29,West,270,6.9,9.8,54,0.00,,,0.00,fowsr,2013-05-04 20:00:00,
2013-05-04 16:05:00,58.5,46.2,30.29,SW,225,6.0,14.5,55,0.00,,,0.00,fowsr,2013-05-04 20:05:00,
2013-05-04 16:10:00,58.5,46.2,30.29,NW,315,9.2,13.6,55,0.00,,,0.00,fowsr,2013-05-04 20:10:00,
2013-05-04 16:15:00,57.9,46.1,30.29,South,180,6.0,11.4,56,0.00,,,0.00,fowsr,2013-05-04 20:15:00,
2013-05-04 16:20:00,58.3,46.4,30.29,SW,225,6.0,13.0,56,0.00,,,0.00,fowsr,2013-05-04 20:20:00,
2013-05-04 16:25:00,57.9,46.1,30.29,West,270,3.8,5.4,56,0.00,,,0.00,fowsr,2013-05-04 20:25:00,
2013-05-04 16:30:00,58.5,46.6,30.29,SE,135,4.5,11.4,56,0.00,,,0.00,fowsr,2013-05-04 20:30:00,
2013-05-04 16:35:00,58.1,45.9,30.28,NW,315,3.8,5.4,55,0.00,,,0.00,fowsr,2013-05-04 20:35:00,
2013-05-04 16:40:00,58.5,46.6,30.28,SW,225,8.3,10.7,56,0.00,,,0.00,fowsr,2013-05-04 20:40:00,
2013-05-04 16:45:00,58.5,46.9,30.28,SW,225,2.2,3.8,57,0.00,,,0.00,fowsr,2013-05-04 20:45:00,
2013-05-04 16:55:00,57.7,45.9,30.29,NW,315,6.9,13.0,56,0.00,,,0.00,fowsr,2013-05-04 20:55:00,
2013-05-04 17:00:00,57.2,45.8,30.28,West,270,9.8,16.8,57,0.00,,,0.00,fowsr,2013-05-04 21:00:00,
2013-05-04 17:05:00,56.8,45.4,30.28,NW,315,7.6,10.7,57,0.00,,,0.00,fowsr,2013-05-04 21:05:00,
2013-05-04 17:10:00,56.7,45.3,30.29,West,270,6.0,9.2,57,0.00,,,0.00,fowsr,2013-05-04 21:10:00,
2013-05-04 17:15:00,56.5,45.1,30.28,West,270,6.9,10.7,57,0.00,,,0.00,fowsr,2013-05-04 21:15:00,
2013-05-04 17:20:00,56.1,45.1,30.28,SW,225,7.6,10.7,58,0.00,,,0.00,fowsr,2013-05-04 21:20:00,
2013-05-04 17:25:00,56.1,45.1,30.28,NNW,337,3.8,6.0,58,0.00,,,0.00,fowsr,2013-05-04 21:25:00,
2013-05-04 17:30:00,56.7,45.6,30.28,West,270,6.9,11.4,58,0.00,,,0.00,fowsr,2013-05-04 21:30:00,
2013-05-04 17:35:00,56.1,44.8,30.28,East,90,3.1,6.0,57,0.00,,,0.00,fowsr,2013-05-04 21:35:00,
2013-05-04 17:40:00,56.3,45.3,30.28,SW,225,5.4,8.3,58,0.00,,,0.00,fowsr,2013-05-04 21:40:00,
2013-05-04 17:45:00,56.3,45.3,30.28,West,270,5.4,7.6,58,0.00,,,0.00,fowsr,2013-05-04 21:45:00,
2013-05-04 17:50:00,56.1,45.4,30.28,SW,225,6.9,10.7,59,0.00,,,0.00,fowsr,2013-05-04 21:50:00,
2013-05-04 17:55:00,55.8,45.1,30.28,SW,225,6.0,12.1,59,0.00,,,0.00,fowsr,2013-05-04 21:55:00,
2013-05-04 18:00:00,55.2,45.2,30.28,NW,315,5.4,9.2,61,0.00,,,0.00,fowsr,2013-05-04 22:00:00,
2013-05-04 18:05:00,54.7,44.7,30.27,SW,225,8.3,15.9,61,0.00,,,0.00,fowsr,2013-05-04 22:05:00,
2013-05-04 18:10:00,54.5,44.9,30.27,West,270,6.0,9.8,62,0.00,,,0.00,fowsr,2013-05-04 22:10:00,
2013-05-04 18:15:00,54.5,45.2,30.27,West,270,6.0,9.8,63,0.00,,,0.00,fowsr,2013-05-04 22:15:00,
2013-05-04 18:20:00,54.9,45.5,30.27,NW,315,3.1,4.5,63,0.00,,,0.00,fowsr,2013-05-04 22:20:00,
2013-05-04 18:25:00,54.5,44.9,30.27,West,270,6.0,10.7,62,0.00,,,0.00,fowsr,2013-05-04 22:25:00,
2013-05-04 18:30:00,54.3,44.4,30.27,NW,315,4.5,8.3,61,0.00,,,0.00,fowsr,2013-05-04 22:30:00,
2013-05-04 18:35:00,54.1,44.5,30.27,SW,225,6.9,9.8,62,0.00,,,0.00,fowsr,2013-05-04 22:35:00,
2013-05-04 18:40:00,54.0,44.7,30.27,South,180,4.5,6.0,63,0.00,,,0.00,fowsr,2013-05-04 22:40:00,
2013-05-04 18:45:00,53.8,44.8,30.27,SSW,202,3.8,5.4,64,0.00,,,0.00,fowsr,2013-05-04 22:45:00,
2013-05-04 18:50:00,53.8,45.1,30.27,SW,225,3.1,6.0,65,0.00,,,0.00,fowsr,2013-05-04 22:50:00,
2013-05-04 18:55:00,53.8,45.1,30.27,SW,225,3.8,6.0,65,0.00,,,0.00,fowsr,2013-05-04 22:55:00,
2013-05-04 19:00:00,53.4,44.5,30.27,SW,225,6.0,9.8,64,0.00,,,0.00,fowsr,2013-05-04 23:00:00,
2013-05-04 19:05:00,53.2,44.0,30.27,NW,315,4.5,7.6,63,0.00,,,0.00,fowsr,2013-05-04 23:05:00,
2013-05-04 19:10:00,52.9,44.0,30.27,West,270,6.0,9.2,64,0.00,,,0.00,fowsr,2013-05-04 23:10:00,
2013-05-04 19:15:00,52.3,43.8,30.27,South,180,3.8,7.6,65,0.00,,,0.00,fowsr,2013-05-04 23:15:00,
2013-05-04 19:20:00,51.8,43.6,30.27,SE,135,5.4,6.9,66,0.00,,,0.00,fowsr,2013-05-04 23:20:00,
2013-05-04 19:25:00,51.4,43.8,30.27,West,270,6.0,9.8,68,0.00,,,0.00,fowsr,2013-05-04 23:25:00,
2013-05-04 19:30:00,51.3,43.6,30.27,WSW,247,5.4,6.9,68,0.00,,,0.00,fowsr,2013-05-04 23:30:00,
2013-05-04 19:35:00,51.1,43.7,30.27,West,270,3.1,4.5,69,0.00,,,0.00,fowsr,2013-05-04 23:35:00,
2013-05-04 19:40:00,50.9,43.6,30.27,NW,315,3.8,6.9,69,0.00,,,0.00,fowsr,2013-05-04 23:40:00,
2013-05-04 19:45:00,50.5,43.5,30.27,NW,315,1.6,3.8,70,0.00,,,0.00,fowsr,2013-05-04 23:45:00,
2013-05-04 19:50:00,50.2,43.4,30.27,SW,225,6.0,8.3,71,0.00,,,0.00,fowsr,2013-05-04 23:50:00,
2013-05-04 19:55:00,50.2,43.7,30.27,SW,225,3.8,6.9,72,0.00,,,0.00,fowsr,2013-05-04 23:55:00,
2013-05-04 20:00:00,50.0,43.5,30.27,NW,315,3.1,3.8,72,0.00,,,0.00,fowsr,2013-05-05 00:00:00,
2013-05-04 20:05:00,49.8,43.9,30.27,SW,225,3.8,6.0,74,0.00,,,0.00,fowsr,2013-05-05 00:05:00,
2013-05-04 20:10:00,49.6,43.7,30.27,SW,225,6.9,10.7,74,0.00,,,0.00,fowsr,2013-05-05 00:10:00,
2013-05-04 20:15:00,49.6,43.4,30.27,NW,315,3.1,6.9,73,0.00,,,0.00,fowsr,2013-05-05 00:15:00,
2013-05-04 20:20:00,49.6,43.7,30.28,NW,315,3.1,4.5,74,0.00,,,0.00,fowsr,2013-05-05 00:20:00,
2013-05-04 20:25:00,49.5,43.5,30.27,NW,315,3.8,6.9,74,0.00,,,0.00,fowsr,2013-05-05 00:25:00,
2013-05-04 20:30:00,49.5,43.5,30.28,South,180,4.5,7.6,74,0.00,,,0.00,fowsr,2013-05-05 00:30:00,
2013-05-04 20:35:00,49.3,43.4,30.28,West,270,2.2,3.1,74,0.00,,,0.00,fowsr,2013-05-05 00:35:00,
2013-05-04 20:40:00,49.1,43.2,30.28,SW,225,6.0,9.2,74,0.00,,,0.00,fowsr,2013-05-05 00:40:00,
2013-05-04 20:45:00,48.9,43.3,30.28,West,270,3.1,4.5,75,0.00,,,0.00,fowsr,2013-05-05 00:45:00,
2013-05-04 20:50:00,48.9,43.3,30.28,West,270,3.1,5.4,75,0.00,,,0.00,fowsr,2013-05-05 00:50:00,
2013-05-04 20:55:00,48.7,43.1,30.28,South,180,3.1,5.4,75,0.00,,,0.00,fowsr,2013-05-05 00:55:00,
2013-05-04 21:00:00,48.7,43.4,30.28,NW,315,3.8,7.6,76,0.00,,,0.00,fowsr,2013-05-05 01:00:00,
2013-05-04 21:05:00,48.7,43.4,30.29,WNW,292,3.1,4.5,76,0.00,,,0.00,fowsr,2013-05-05 01:05:00,
2013-05-04 21:10:00,48.6,43.2,30.28,NW,315,3.8,6.0,76,0.00,,,0.00,fowsr,2013-05-05 01:10:00,
2013-05-04 21:15:00,48.6,43.2,30.28,SW,225,2.2,3.8,76,0.00,,,0.00,fowsr,2013-05-05 01:15:00,
2013-05-04 21:20:00,48.4,43.3,30.28,SW,225,1.6,3.1,77,0.00,,,0.00,fowsr,2013-05-05 01:20:00,
2013-05-04 21:25:00,48.4,43.3,30.28,West,270,7.6,14.5,77,0.00,,,0.00,fowsr,2013-05-05 01:25:00,
2013-05-04 21:30:00,48.2,43.3,30.29,NW,315,4.5,9.2,78,0.00,,,0.00,fowsr,2013-05-05 01:30:00,
2013-05-04 21:35:00,48.2,43.3,30.29,West,270,3.1,5.4,78,0.00,,,0.00,fowsr,2013-05-05 01:35:00,
2013-05-04 21:40:00,48.0,43.4,30.29,NW,315,2.2,3.1,79,0.00,,,0.00,fowsr,2013-05-05 01:40:00,
2013-05-04 21:45:00,48.0,43.4,30.29,NW,315,3.1,6.0,79,0.00,,,0.00,fowsr,2013-05-05 01:45:00,
2013-05-04 21:50:00,47.8,43.2,30.29,North,0,6.9,9.8,79,0.00,,,0.00,fowsr,2013-05-05 01:50:00,
2013-05-04 21:55:00,47.7,43.1,30.29,NW,315,2.2,4.5,79,0.00,,,0.00,fowsr,2013-05-05 01:55:00,
2013-05-04 22:00:00,47.7,43.1,30.29,NW,315,4.5,7.6,79,0.00,,,0.00,fowsr,2013-05-05 02:00:00,
2013-05-04 22:05:00,47.5,42.6,30.29,West,270,3.8,5.4,78,0.00,,,0.00,fowsr,2013-05-05 02:05:00,
2013-05-04 22:10:00,47.5,42.6,30.29,South,180,5.4,7.6,78,0.00,,,0.00,fowsr,2013-05-05 02:10:00,
2013-05-04 22:15:00,47.5,42.4,30.29,SW,225,6.9,12.1,77,0.00,,,0.00,fowsr,2013-05-05 02:15:00,
2013-05-04 22:20:00,47.5,42.4,30.30,North,0,3.1,5.4,77,0.00,,,0.00,fowsr,2013-05-05 02:20:00,
2013-05-04 22:25:00,47.3,42.5,30.30,West,270,3.8,7.6,78,0.00,,,0.00,fowsr,2013-05-05 02:25:00,
2013-05-04 22:30:00,47.3,42.5,30.30,West,270,2.2,6.9,78,0.00,,,0.00,fowsr,2013-05-05 02:30:00,
2013-05-04 22:35:00,47.1,42.5,30.30,NW,315,4.5,6.0,79,0.00,,,0.00,fowsr,2013-05-05 02:35:00,
2013-05-04 22:40:00,47.1,42.5,30.30,West,270,2.2,3.1,79,0.00,,,0.00,fowsr,2013-05-05 02:40:00,
2013-05-04 22:45:00,46.9,42.6,30.30,NW,315,3.8,9.2,80,0.00,,,0.00,fowsr,2013-05-05 02:45:00,
2013-05-04 22:50:00,46.8,42.4,30.30,NW,315,2.2,3.8,80,0.00,,,0.00,fowsr,2013-05-05 02:50:00,
2013-05-04 22:55:00,46.8,42.7,30.30,West,270,5.4,7.6,81,0.00,,,0.00,fowsr,2013-05-05 02:55:00,
2013-05-04 23:00:00,46.8,42.4,30.30,NW,315,3.1,5.4,80,0.00,,,0.00,fowsr,2013-05-05 03:00:00,
2013-05-04 23:05:00,46.8,42.4,30.29,West,270,7.6,12.1,80,0.00,,,0.00,fowsr,2013-05-05 03:05:00,
2013-05-04 23:10:00,46.8,42.4,30.29,North,0,1.6,3.1,80,0.00,,,0.00,fowsr,2013-05-05 03:10:00,
2013-05-04 23:15:00,46.8,42.7,30.29,West,270,1.6,3.1,81,0.00,,,0.00,fowsr,2013-05-05 03:15:00,
2013-05-04 23:20:00,46.6,42.5,30.29,West,270,4.5,7.6,81,0.00,,,0.00,fowsr,2013-05-05 03:20:00,
2013-05-04 23:25:00,46.6,42.5,30.29,West,270,6.9,10.7,81,0.00,,,0.00,fowsr,2013-05-05 03:25:00,
2013-05-04 23:30:00,46.8,42.4,30.29,SW,225,3.8,5.4,80,0.00,,,0.00,fowsr,2013-05-05 03:30:00,
2013-05-04 23:35:00,46.6,42.3,30.28,WNW,292,3.8,6.0,80,0.00,,,0.00,fowsr,2013-05-05 03:35:00,
2013-05-04 23:40:00,46.6,42.5,30.28,NW,315,3.8,6.0,81,0.00,,,0.00,fowsr,2013-05-05 03:40:00,
2013-05-04 23:45:00,46.6,42.5,30.29,West,270,3.8,6.9,81,0.00,,,0.00,fowsr,2013-05-05 03:45:00,
2013-05-04 23:50:00,46.6,42.5,30.29,South,180,5.4,9.2,81,0.00,,,0.00,fowsr,2013-05-05 03:50:00,
2013-05-04 23:55:00,46.6,42.3,30.29,SW,225,6.0,9.2,80,0.00,,,0.00,fowsr,2013-05-05 03:55:00,